createdAt,value
2022-12-28T00:01:22.203Z,101403.91
2022-12-28T00:03:50.086Z,101399.69
2022-12-28T00:06:18.493Z,101395.81
2022-12-28T00:08:45.747Z,101393.19
2022-12-28T00:11:26.543Z,101378.53
2022-12-28T00:13:58.859Z,101384.53
2022-12-28T00:16:37.366Z,101381.28
2022-12-28T00:19:07.254Z,101363.03
2022-12-28T00:21:34.991Z,101353.59
2022-12-28T00:24:03.024Z,101363.53
2022-12-28T00:26:32.398Z,101341.25
2022-12-28T00:29:04.656Z,101352.00
2022-12-28T00:31:34.476Z,101341.88
2022-12-28T00:34:02.507Z,101340.94
2022-12-28T00:37:10.213Z,101331.66
2022-12-28T00:39:16.862Z,101320.22
2022-12-28T00:41:43.950Z,101326.59
2022-12-28T00:44:11.570Z,101322.53
2022-12-28T00:46:38.553Z,101312.91
2022-12-28T00:49:05.744Z,101308.69
2022-12-28T00:51:33.833Z,101289.91
2022-12-28T00:54:01.279Z,101281.44
2022-12-28T00:56:28.588Z,101286.16
2022-12-28T00:58:57.734Z,101281.72
2022-12-28T01:01:25.295Z,101260.53
2022-12-28T01:03:52.988Z,101272.38
2022-12-28T01:06:20.525Z,101252.84
2022-12-28T01:08:47.806Z,101248.09
2022-12-28T01:11:17.602Z,101249.06
2022-12-28T01:13:45.230Z,101244.81
2022-12-28T01:16:14.154Z,101245.78
2022-12-28T01:18:41.828Z,101239.09
2022-12-28T01:21:14.177Z,101230.59
2022-12-28T01:23:44.451Z,101215.91
2022-12-28T01:26:11.613Z,101230.75
2022-12-28T01:28:39.233Z,101222.09
2022-12-28T01:31:08.882Z,101212.75
2022-12-28T01:33:36.328Z,101196.28
2022-12-28T01:36:13.718Z,101199.19
2022-12-28T01:38:40.844Z,101200.81
2022-12-28T01:41:13.126Z,101185.47
2022-12-28T01:43:47.533Z,101183.00
2022-12-28T01:46:37.447Z,101182.78
2022-12-28T01:49:17.508Z,101182.09
2022-12-28T01:51:48.806Z,101168.38
2022-12-28T01:54:16.378Z,101175.06
2022-12-28T01:56:44.339Z,101174.28
2022-12-28T01:59:11.876Z,101164.31
2022-12-28T02:01:39.115Z,101156.00
2022-12-28T02:04:06.325Z,101157.63
2022-12-28T02:06:33.610Z,101158.28
2022-12-28T02:09:08.147Z,101161.19
2022-12-28T02:11:37.391Z,101139.50
2022-12-28T02:14:06.822Z,101145.50
2022-12-28T02:16:34.466Z,101137.59
2022-12-28T02:19:01.675Z,101143.59
2022-12-28T02:21:49.122Z,101130.75
2022-12-28T02:24:47.467Z,101133.47
2022-12-28T02:27:30.004Z,101137.78
2022-12-28T02:30:04.158Z,101123.31
2022-12-28T02:32:55.177Z,101112.34
2022-12-28T02:35:30.240Z,101133.38
2022-12-28T02:38:02.578Z,101135.63
2022-12-28T02:40:36.276Z,101133.53
2022-12-28T02:43:04.020Z,101123.69
2022-12-28T02:45:55.712Z,101119.63
2022-12-28T02:48:41.392Z,101126.47
2022-12-28T02:51:17.748Z,101123.84
2022-12-28T02:54:38.965Z,101111.91
2022-12-28T02:57:46.705Z,101101.41
2022-12-28T03:00:18.474Z,101084.16
2022-12-28T03:03:05.895Z,101075.69
2022-12-28T03:06:19.360Z,101083.69
2022-12-28T03:09:04.735Z,101087.75
2022-12-28T03:11:45.380Z,101100.75
2022-12-28T03:14:20.892Z,101093.59
2022-12-28T03:17:07.854Z,101084.31
2022-12-28T03:19:57.050Z,101084.81
2022-12-28T03:22:43.281Z,101081.69
2022-12-28T03:25:34.979Z,101079.50
2022-12-28T03:28:22.990Z,101090.59
2022-12-28T03:31:08.393Z,101074.88
2022-12-28T03:33:47.387Z,101074.41
2022-12-28T03:36:33.723Z,101058.13
2022-12-28T03:39:25.023Z,101074.88
2022-12-28T03:42:14.811Z,101071.44
2022-12-28T03:44:47.412Z,101072.94
2022-12-28T03:47:15.468Z,101071.44
2022-12-28T03:49:42.633Z,101056.28
2022-12-28T03:52:11.549Z,101062.50
2022-12-28T03:54:40.807Z,101074.66
2022-12-28T03:57:09.217Z,101056.72
2022-12-28T03:59:41.227Z,101053.16
2022-12-28T04:02:08.898Z,101049.09
2022-12-28T04:04:36.328Z,101055.66
2022-12-28T04:07:03.387Z,101042.97
2022-12-28T04:09:32.803Z,101039.69
2022-12-28T04:12:00.614Z,101037.41
2022-12-28T04:14:47.537Z,101039.38
2022-12-28T04:17:15.653Z,101038.19
2022-12-28T04:19:42.885Z,101039.16
2022-12-28T04:22:10.011Z,101027.69
2022-12-28T04:24:37.631Z,101030.97
2022-12-28T04:27:04.913Z,101010.50
2022-12-28T04:29:33.111Z,101019.28
2022-12-28T04:32:03.557Z,101017.44
2022-12-28T04:34:30.933Z,101015.59
2022-12-28T04:37:07.918Z,101018.38
2022-12-28T04:39:56.203Z,101020.47
2022-12-28T04:42:22.314Z,101003.91
2022-12-28T04:44:49.313Z,100996.19
2022-12-28T04:47:16.475Z,100986.69
2022-12-28T04:49:43.449Z,100997.47
2022-12-28T04:52:10.707Z,100993.53
2022-12-28T04:54:37.645Z,100990.06
2022-12-28T04:57:04.762Z,100995.75
2022-12-28T04:59:32.167Z,100992.97
2022-12-28T05:01:59.352Z,100990.28
2022-12-28T05:04:27.105Z,100997.59
2022-12-28T05:06:54.278Z,100988.44
2022-12-28T05:09:21.697Z,100986.56
2022-12-28T05:11:48.938Z,100980.69
2022-12-28T05:14:16.127Z,100996.09
2022-12-28T05:16:43.219Z,100984.03
2022-12-28T05:19:10.619Z,100985.22
2022-12-28T05:21:37.450Z,100975.69
2022-12-28T05:24:04.630Z,100973.28
2022-12-28T05:26:32.197Z,100976.16
2022-12-28T05:28:59.514Z,100977.56
2022-12-28T05:31:27.081Z,100993.19
2022-12-28T05:33:55.208Z,100987.41
2022-12-28T05:36:27.328Z,100997.81
2022-12-28T05:38:54.935Z,100990.41
2022-12-28T05:41:24.505Z,100999.00
2022-12-28T05:43:52.079Z,100989.50
2022-12-28T05:46:22.177Z,100993.53
2022-12-28T05:48:49.445Z,100983.81
2022-12-28T05:51:19.407Z,100984.72
2022-12-28T05:53:46.978Z,100984.50
2022-12-28T05:56:20.020Z,100978.72
2022-12-28T05:58:52.017Z,100963.28
2022-12-28T06:01:21.376Z,100967.09
2022-12-28T06:03:52.696Z,100979.81
2022-12-28T06:06:20.999Z,100969.97
2022-12-28T06:08:48.708Z,100966.47
2022-12-28T06:11:18.920Z,100966.94
2022-12-28T06:13:46.527Z,100976.91
2022-12-28T06:16:32.737Z,100972.28
2022-12-28T06:19:00.245Z,100956.47
2022-12-28T06:21:29.380Z,100963.44
2022-12-28T06:23:57.969Z,100969.31
2022-12-28T06:26:25.840Z,100967.72
2022-12-28T06:28:53.039Z,100970.66
2022-12-28T06:31:22.901Z,100966.03
2022-12-28T06:33:54.321Z,100954.00
2022-12-28T06:36:26.800Z,100955.16
2022-12-28T06:38:55.197Z,100965.72
2022-12-28T06:41:22.821Z,100959.34
2022-12-28T06:43:50.558Z,100956.91
2022-12-28T06:46:19.281Z,100950.91
2022-12-28T06:48:46.581Z,100953.69
2022-12-28T06:51:17.846Z,100950.53
2022-12-28T06:53:45.556Z,100956.56
2022-12-28T06:56:15.512Z,100953.78
2022-12-28T06:58:43.488Z,100944.63
2022-12-28T07:01:14.367Z,100949.41
2022-12-28T07:03:42.625Z,100947.97
2022-12-28T07:06:09.878Z,100950.88
2022-12-28T07:08:37.029Z,100949.47
2022-12-28T07:11:18.115Z,100938.34
2022-12-28T07:13:45.222Z,100957.44
2022-12-28T07:16:18.437Z,100944.69
2022-12-28T07:18:46.088Z,100946.44
2022-12-28T07:21:24.482Z,100955.28
2022-12-28T07:23:52.939Z,100953.66
2022-12-28T07:26:22.379Z,100944.03
2022-12-28T07:28:51.641Z,100954.00
2022-12-28T07:31:21.082Z,100952.38
2022-12-28T07:33:49.288Z,100952.13
2022-12-28T07:36:18.015Z,100958.94
2022-12-28T07:38:45.236Z,100943.53
2022-12-28T07:41:17.359Z,100953.50
2022-12-28T07:43:44.838Z,100953.03
2022-12-28T07:46:14.424Z,100949.09
2022-12-28T07:48:42.933Z,100939.59
2022-12-28T07:51:11.327Z,100950.72
2022-12-28T07:53:39.247Z,100961.59
2022-12-28T07:56:06.701Z,100951.63
2022-12-28T07:58:34.915Z,100947.00
2022-12-28T08:01:07.552Z,100952.44
2022-12-28T08:03:35.764Z,100953.59
2022-12-28T08:06:11.007Z,100938.91
2022-12-28T08:08:40.247Z,100944.47
2022-12-28T08:11:10.826Z,100943.19
2022-12-28T08:13:39.978Z,100945.06
2022-12-28T08:16:08.112Z,100941.81
2022-12-28T08:18:35.647Z,100942.84
2022-12-28T08:21:09.216Z,100946.19
2022-12-28T08:23:36.326Z,100943.84
2022-12-28T08:26:16.563Z,100941.88
2022-12-28T08:28:45.028Z,100935.34
2022-12-28T08:31:15.526Z,100923.72
2022-12-28T08:33:43.522Z,100932.50
2022-12-28T08:36:10.839Z,100929.63
2022-12-28T08:38:39.900Z,100936.91
2022-12-28T08:41:08.901Z,100951.66
2022-12-28T08:43:36.405Z,100940.50
2022-12-28T08:46:10.910Z,100949.31
2022-12-28T08:48:38.390Z,100946.53
2022-12-28T08:51:08.298Z,100940.97
2022-12-28T08:53:35.939Z,100942.13
2022-12-28T08:56:24.122Z,100942.13
2022-12-28T08:58:51.607Z,100934.22
2022-12-28T09:01:21.138Z,100944.63
2022-12-28T09:03:50.857Z,100954.50
2022-12-28T09:06:20.077Z,100944.56
2022-12-28T09:09:05.449Z,100934.69
2022-12-28T09:11:37.507Z,100938.72
2022-12-28T09:14:05.283Z,100943.13
2022-12-28T09:16:32.981Z,100932.44
2022-12-28T09:19:01.859Z,100935.22
2022-12-28T09:21:34.047Z,100929.66
2022-12-28T09:24:01.769Z,100937.66
2022-12-28T09:26:31.526Z,100941.34
2022-12-28T09:29:00.352Z,100931.03
2022-12-28T09:31:32.056Z,100932.53
2022-12-28T09:36:48.110Z,100938.38
2022-12-28T09:39:20.961Z,100939.88
2022-12-28T09:42:04.097Z,100926.25
2022-12-28T09:44:37.357Z,100939.69
2022-12-28T09:47:35.138Z,100941.81
2022-12-28T09:50:02.076Z,100943.97
2022-12-28T09:53:06.094Z,100940.94
2022-12-28T09:55:35.087Z,100931.34
2022-12-28T09:58:03.086Z,100933.03
2022-12-28T10:00:50.371Z,100929.81
2022-12-28T10:03:19.328Z,100926.91
2022-12-28T10:05:47.180Z,100919.44
2022-12-28T10:08:16.847Z,100919.06
2022-12-28T10:10:48.650Z,100921.72
2022-12-28T10:16:07.626Z,100919.41
2022-12-28T10:18:39.679Z,100915.34
2022-12-28T10:21:07.135Z,100920.56
2022-12-28T10:23:41.226Z,100907.47
2022-12-28T10:26:19.327Z,100905.69
2022-12-28T10:28:54.736Z,100911.25
2022-12-28T10:31:39.008Z,100905.38
2022-12-28T10:34:21.153Z,100915.41
2022-12-28T10:36:49.787Z,100901.38
2022-12-28T10:39:29.017Z,100899.03
2022-12-28T10:41:58.539Z,100899.84
2022-12-28T10:44:39.859Z,100895.09
2022-12-28T10:47:17.707Z,100901.47
2022-12-28T10:50:10.432Z,100884.81
2022-12-28T10:52:38.276Z,100885.41
2022-12-28T10:55:33.400Z,100872.00
2022-12-28T10:58:31.642Z,100878.88
2022-12-28T11:01:04.179Z,100884.66
2022-12-28T11:03:37.592Z,100887.44
2022-12-28T11:06:15.427Z,100877.94
2022-12-28T11:08:44.311Z,100872.19
2022-12-28T11:11:22.551Z,100864.66
2022-12-28T11:13:57.195Z,100859.56
2022-12-28T11:16:24.866Z,100854.91
2022-12-28T11:18:51.863Z,100856.09
2022-12-28T11:21:21.267Z,100852.50
2022-12-28T11:23:49.666Z,100850.16
2022-12-28T11:26:18.259Z,100846.94
2022-12-28T11:28:46.679Z,100852.81
2022-12-28T11:31:19.950Z,100843.22
2022-12-28T11:33:51.087Z,100837.31
2022-12-28T11:36:21.103Z,100836.88
2022-12-28T11:38:51.276Z,100837.31
2022-12-28T11:41:28.869Z,100829.81
2022-12-28T11:44:04.849Z,100835.25
2022-12-28T11:46:32.289Z,100824.50
2022-12-28T11:49:00.081Z,100829.13
2022-12-28T11:51:34.511Z,100825.19
2022-12-28T11:54:03.400Z,100812.13
2022-12-28T11:56:45.596Z,100825.19
2022-12-28T11:59:26.011Z,100818.81
2022-12-28T12:01:59.774Z,100822.88
2022-12-28T12:04:36.993Z,100808.97
2022-12-28T12:07:04.176Z,100817.69
2022-12-28T12:09:33.082Z,100817.69
2022-12-28T12:12:03.828Z,100809.94
2022-12-28T12:14:35.687Z,100813.84
2022-12-28T12:17:06.041Z,100819.41
2022-12-28T12:19:36.517Z,100808.66
2022-12-28T12:22:50.174Z,100791.06
2022-12-28T12:25:25.285Z,100804.63
2022-12-28T12:27:58.894Z,100794.19
2022-12-28T12:30:26.360Z,100782.25
2022-12-28T12:33:00.073Z,100789.00
2022-12-28T12:35:35.208Z,100779.25
2022-12-28T12:38:21.014Z,100772.09
2022-12-28T12:40:55.846Z,100777.66
2022-12-28T12:43:25.901Z,100759.03
2022-12-28T12:45:58.922Z,100760.97
2022-12-28T12:48:50.650Z,100753.53
2022-12-28T12:51:33.244Z,100742.09
2022-12-28T12:54:15.595Z,100719.94
2022-12-28T12:56:56.902Z,100731.16
2022-12-28T12:59:56.674Z,100727.31
2022-12-28T13:02:23.961Z,100715.22
2022-12-28T13:04:51.423Z,100705.34
2022-12-28T13:07:22.647Z,100684.75
2022-12-28T13:09:51.126Z,100688.06
2022-12-28T13:12:19.325Z,100693.00
2022-12-28T13:14:57.213Z,100681.88
2022-12-28T13:17:24.297Z,100675.50
2022-12-28T13:19:51.261Z,100665.28
2022-12-28T13:22:29.796Z,100649.84
2022-12-28T13:24:57.816Z,100657.50
2022-12-28T13:27:28.056Z,100636.84
2022-12-28T13:34:35.445Z,100610.75
2022-12-28T13:37:06.073Z,100623.47
2022-12-28T13:39:39.945Z,100608.47
2022-12-28T13:42:15.408Z,100604.63
2022-12-28T13:44:46.163Z,100611.88
2022-12-28T13:47:43.833Z,100605.16
2022-12-28T13:50:17.019Z,100591.69
2022-12-28T13:52:59.291Z,100594.03
2022-12-28T13:55:36.500Z,100582.63
2022-12-28T13:58:13.330Z,100581.81
2022-12-28T14:00:44.721Z,100576.25
2022-12-28T14:03:12.000Z,100557.59
2022-12-28T14:05:42.715Z,100553.19
2022-12-28T14:08:09.737Z,100552.06
2022-12-28T14:10:37.070Z,100548.47
2022-12-28T14:13:04.796Z,100545.78
2022-12-28T14:15:38.928Z,100542.66
2022-12-28T14:18:08.331Z,100534.75
2022-12-28T14:20:52.353Z,100532.84
2022-12-28T14:23:25.449Z,100524.06
2022-12-28T14:26:19.388Z,100508.97
2022-12-28T14:28:53.118Z,100503.41
2022-12-28T14:31:23.221Z,100502.66
2022-12-28T14:33:53.523Z,100500.16
2022-12-28T14:36:22.568Z,100487.38
2022-12-28T14:38:52.536Z,100484.44
2022-12-28T14:41:33.016Z,100474.44
2022-12-28T14:44:03.037Z,100454.97
2022-12-28T14:46:36.068Z,100470.16
2022-12-28T14:49:29.584Z,100477.56
2022-12-28T14:52:08.820Z,100469.59
2022-12-28T14:54:52.504Z,100457.53
2022-12-28T14:57:43.043Z,100456.31
2022-12-28T15:00:16.506Z,100450.72
2022-12-28T15:02:43.658Z,100452.59
2022-12-28T15:05:32.778Z,100439.94
2022-12-28T15:08:01.437Z,100441.34
2022-12-28T15:10:28.502Z,100430.66
2022-12-28T15:12:55.617Z,100427.56
2022-12-28T15:15:22.459Z,100425.00
2022-12-28T15:17:49.363Z,100425.75
2022-12-28T15:20:17.866Z,100415.66
2022-12-28T15:22:45.080Z,100413.31
2022-12-28T15:25:12.397Z,100418.06
2022-12-28T15:27:39.506Z,100408.47
2022-12-28T15:30:11.949Z,100413.16
2022-12-28T15:32:41.593Z,100408.31
2022-12-28T15:35:08.773Z,100401.06
2022-12-28T15:37:35.766Z,100395.50
2022-12-28T15:40:02.883Z,100389.16
2022-12-28T15:42:31.503Z,100387.53
2022-12-28T15:45:02.044Z,100371.25
2022-12-28T15:47:29.416Z,100371.06
2022-12-28T15:49:59.583Z,100358.00
2022-12-28T15:52:26.658Z,100356.75
2022-12-28T15:54:53.957Z,100344.28
2022-12-28T15:57:21.065Z,100344.75
2022-12-28T15:59:47.905Z,100349.84
2022-12-28T16:02:15.064Z,100332.75
2022-12-28T16:04:42.243Z,100331.41
2022-12-28T16:07:09.778Z,100330.97
2022-12-28T16:09:36.953Z,100321.03
2022-12-28T16:12:04.047Z,100315.53
2022-12-28T16:14:31.079Z,100300.88
2022-12-28T16:16:58.143Z,100302.09
2022-12-28T16:19:25.274Z,100292.44
2022-12-28T16:21:52.423Z,100299.16
2022-12-28T16:24:20.409Z,100290.81
2022-12-28T16:26:47.335Z,100290.09
2022-12-28T16:29:14.217Z,100289.59
2022-12-28T16:31:41.451Z,100287.63
2022-12-28T16:34:14.951Z,100265.91
2022-12-28T16:36:42.942Z,100278.19
2022-12-28T16:39:14.052Z,100292.88
2022-12-28T16:41:41.159Z,100275.69
2022-12-28T16:44:13.368Z,100264.88
2022-12-28T16:46:40.466Z,100259.69
2022-12-28T16:49:07.332Z,100245.44
2022-12-28T16:51:34.279Z,100240.69
2022-12-28T16:54:01.180Z,100244.63
2022-12-28T16:56:28.245Z,100245.38
2022-12-28T16:58:59.447Z,100227.97
2022-12-28T17:01:27.631Z,100237.91
2022-12-28T17:04:01.740Z,100235.06
2022-12-28T17:06:30.979Z,100228.25
2022-12-28T17:08:58.299Z,100212.78
2022-12-28T17:11:25.472Z,100215.56
2022-12-28T17:13:52.286Z,100198.00
2022-12-28T17:16:19.285Z,100210.44
2022-12-28T17:18:46.095Z,100201.69
2022-12-28T17:21:13.215Z,100192.97
2022-12-28T17:23:40.375Z,100189.03
2022-12-28T17:26:07.686Z,100175.16
2022-12-28T17:28:34.996Z,100173.09
2022-12-28T17:31:21.984Z,100167.16
2022-12-28T17:33:51.870Z,100158.09
2022-12-28T17:36:18.896Z,100150.16
2022-12-28T17:38:45.703Z,100146.25
2022-12-28T17:41:18.003Z,100120.84
2022-12-28T17:43:49.753Z,100127.19
2022-12-28T17:46:17.670Z,100128.91
2022-12-28T17:48:44.899Z,100127.69
2022-12-28T17:51:12.307Z,100148.34
2022-12-28T17:53:41.744Z,100135.28
2022-12-28T17:56:11.477Z,100132.16
2022-12-28T17:58:38.557Z,100138.50
2022-12-28T18:01:05.779Z,100133.81
2022-12-28T18:03:34.203Z,100133.81
2022-12-28T18:06:01.804Z,100135.16
2022-12-28T18:08:29.443Z,100116.50
2022-12-28T18:10:57.077Z,100123.28
2022-12-28T18:13:24.299Z,100109.47
2022-12-28T18:15:51.487Z,100093.34
2022-12-28T18:18:19.006Z,100107.28
2022-12-28T18:20:55.881Z,100107.25
2022-12-28T18:23:23.281Z,100099.03
2022-12-28T18:25:50.026Z,100087.03
2022-12-28T18:28:16.933Z,100090.19
2022-12-28T18:30:44.194Z,100085.88
2022-12-28T18:33:11.466Z,100094.19
2022-12-28T18:35:38.505Z,100091.41
2022-12-28T18:38:05.435Z,100085.13
2022-12-28T18:40:32.419Z,100074.00
2022-12-28T18:42:59.553Z,100088.28
2022-12-28T18:45:26.438Z,100086.75
2022-12-28T18:47:53.657Z,100059.72
2022-12-28T18:50:20.548Z,100074.00
2022-12-28T18:52:48.431Z,100073.19
2022-12-28T18:55:15.291Z,100063.31
2022-12-28T18:57:42.317Z,100058.56
2022-12-28T19:00:11.004Z,100057.41
2022-12-28T19:02:38.378Z,100063.41
2022-12-28T19:05:05.549Z,100055.06
2022-12-28T19:07:32.833Z,100059.13
2022-12-28T19:10:13.275Z,100060.69
2022-12-28T19:12:41.331Z,100068.69
2022-12-28T19:15:09.163Z,100050.81
2022-12-28T19:17:36.374Z,100056.34
2022-12-28T19:20:04.748Z,100071.47
2022-12-28T19:22:31.887Z,100052.84
2022-12-28T19:24:59.158Z,100055.22
2022-12-28T19:27:26.309Z,100061.19
2022-12-28T19:29:53.406Z,100045.31
2022-12-28T19:32:20.344Z,100055.31
2022-12-28T19:34:47.344Z,100063.25
2022-12-28T19:37:14.306Z,100053.75
2022-12-28T19:39:41.335Z,100054.25
2022-12-28T19:42:08.428Z,100057.81
2022-12-28T19:44:35.625Z,100045.56
2022-12-28T19:47:02.670Z,100052.78
2022-12-28T19:49:29.706Z,100046.47
2022-12-28T19:51:56.994Z,100060.00
2022-12-28T19:54:24.385Z,100044.97
2022-12-28T19:56:51.305Z,100027.16
2022-12-28T19:59:18.472Z,100024.84
2022-12-28T20:01:45.524Z,100030.41
2022-12-28T20:04:14.302Z,100028.50
2022-12-28T20:06:45.669Z,100014.25
2022-12-28T20:09:13.881Z,100016.63
2022-12-28T20:11:41.910Z,100028.13
2022-12-28T20:14:12.019Z,100015.97
2022-12-28T20:16:39.203Z,100027.97
2022-12-28T20:19:09.443Z,100028.38
2022-12-28T20:21:37.427Z,100037.97
2022-12-28T20:24:05.596Z,100028.44
2022-12-28T20:26:33.028Z,100024.03
2022-12-28T20:29:01.059Z,100030.81
2022-12-28T20:31:28.601Z,100026.59
2022-12-28T20:33:56.269Z,100016.63
2022-12-28T20:36:25.668Z,100022.59
2022-12-28T20:38:55.037Z,100025.72
2022-12-28T20:41:48.685Z,100019.66
2022-12-28T20:44:21.115Z,100016.25
2022-12-28T20:46:48.858Z,100017.84
2022-12-28T20:49:15.966Z,100013.78
2022-12-28T20:51:43.495Z,100012.19
2022-12-28T20:54:11.308Z,100012.78
2022-12-28T20:56:39.232Z,100007.16
2022-12-28T20:59:06.508Z,100015.16
2022-12-28T21:01:34.619Z,100005.19
2022-12-28T21:04:01.816Z,99991.34
2022-12-28T21:06:28.820Z,100005.66
2022-12-28T21:08:55.836Z,99985.03
2022-12-28T21:11:23.022Z,100005.31
2022-12-28T21:13:49.988Z,99998.22
2022-12-28T21:16:17.983Z,99980.75
2022-12-28T21:18:45.228Z,99981.56
2022-12-28T21:21:20.032Z,99993.56
2022-12-28T21:23:47.231Z,99979.13
2022-12-28T21:26:17.018Z,99996.34
2022-12-28T21:28:44.330Z,99981.22
2022-12-28T21:31:11.886Z,99978.03
2022-12-28T21:33:39.234Z,99973.25
2022-12-28T21:36:08.923Z,99981.56
2022-12-28T21:38:38.215Z,99983.09
2022-12-28T21:41:10.961Z,99970.78
2022-12-28T21:43:38.475Z,99984.00
2022-12-28T21:46:09.743Z,99975.66
2022-12-28T21:48:37.613Z,99962.94
2022-12-28T21:51:04.823Z,99968.09
2022-12-28T21:53:31.927Z,99962.88
2022-12-28T21:55:59.039Z,99980.81
2022-12-28T21:58:25.985Z,99977.19
2022-12-28T22:01:17.014Z,99968.91
2022-12-28T22:04:02.755Z,99957.31
2022-12-28T22:06:29.870Z,99950.63
2022-12-28T22:09:15.640Z,99935.88
2022-12-28T22:12:01.156Z,99925.94
2022-12-28T22:14:28.615Z,99935.91
2022-12-28T22:16:55.879Z,99944.25
2022-12-28T22:19:23.075Z,99930.31
2022-12-28T22:21:50.085Z,99931.97
2022-12-28T22:24:17.255Z,99919.22
2022-12-28T22:26:44.246Z,99938.31
2022-12-28T22:29:11.639Z,99921.94
2022-12-28T22:31:39.445Z,99933.00
2022-12-28T22:34:07.564Z,99919.78
2022-12-28T22:36:35.284Z,99914.59
2022-12-28T22:39:02.349Z,99934.06
2022-12-28T22:41:29.517Z,99914.94
2022-12-28T22:43:57.055Z,99914.91
2022-12-28T22:46:24.132Z,99918.03
2022-12-28T22:48:51.318Z,99916.03
2022-12-28T22:51:19.125Z,99920.41
2022-12-28T22:53:46.273Z,99910.13
2022-12-28T22:56:20.896Z,99907.75
2022-12-28T22:58:48.663Z,99910.50
2022-12-28T23:01:18.745Z,99929.97
2022-12-28T23:03:47.889Z,99916.97
2022-12-28T23:06:17.824Z,99904.59
2022-12-28T23:08:45.643Z,99903.75
2022-12-28T23:11:34.176Z,99904.97
2022-12-28T23:14:32.060Z,99904.22
2022-12-28T23:16:59.829Z,99903.84
2022-12-28T23:19:45.936Z,99887.94
2022-12-28T23:22:37.517Z,99891.16
2022-12-28T23:25:23.049Z,99892.41
2022-12-28T23:27:50.717Z,99886.03
2022-12-28T23:30:20.996Z,99894.00
2022-12-28T23:32:50.622Z,99901.59
2022-12-28T23:35:19.235Z,99910.75
2022-12-28T23:37:46.168Z,99884.44
2022-12-28T23:40:15.481Z,99890.81
2022-12-28T23:42:43.459Z,99881.66
2022-12-28T23:45:14.211Z,99879.69
2022-12-28T23:47:42.638Z,99877.75
2022-12-28T23:50:10.598Z,99868.53
2022-12-28T23:52:37.804Z,99857.44
2022-12-28T23:55:05.603Z,99863.00
2022-12-28T23:57:32.820Z,99865.03
